sensor_id;sensor_type;location;lat;lon;timestamp;P1;durP1;ratioP1;P2;durP2;ratioP2
69953;SDS011;57276;51.364;12.376;2023-02-01T00:04:29;9.73;;;2.90;;
69953;SDS011;57276;51.364;12.376;2023-02-01T00:10:31;8.70;;;2.77;;
69953;SDS011;57276;51.364;12.376;2023-02-01T00:16:32;6.82;;;2.40;;
69953;SDS011;57276;51.364;12.376;2023-02-01T00:22:33;7.93;;;2.50;;
69953;SDS011;57276;51.364;12.376;2023-02-01T00:28:35;7.60;;;1.95;;
69953;SDS011;57276;51.364;12.376;2023-02-01T00:34:36;8.00;;;2.28;;
69953;SDS011;57276;51.364;12.376;2023-02-01T00:40:38;7.57;;;2.13;;
69953;SDS011;57276;51.364;12.376;2023-02-01T00:46:39;12.05;;;2.13;;
69953;SDS011;57276;51.364;12.376;2023-02-01T00:52:42;6.77;;;1.60;;
69953;SDS011;57276;51.364;12.376;2023-02-01T00:58:43;12.45;;;1.95;;
69953;SDS011;57276;51.364;12.376;2023-02-01T01:04:46;7.25;;;2.00;;
69953;SDS011;57276;51.364;12.376;2023-02-01T01:10:48;6.77;;;1.77;;
69953;SDS011;57276;51.364;12.376;2023-02-01T01:16:50;9.55;;;1.60;;
69953;SDS011;57276;51.364;12.376;2023-02-01T01:22:52;10.37;;;2.30;;
69953;SDS011;57276;51.364;12.376;2023-02-01T01:28:54;8.65;;;2.13;;
69953;SDS011;57276;51.364;12.376;2023-02-01T01:34:57;8.98;;;2.25;;
69953;SDS011;57276;51.364;12.376;2023-02-01T01:40:59;7.33;;;2.10;;
69953;SDS011;57276;51.364;12.376;2023-02-01T01:47:00;7.38;;;2.45;;
69953;SDS011;57276;51.364;12.376;2023-02-01T01:53:03;12.40;;;2.43;;
69953;SDS011;57276;51.364;12.376;2023-02-01T01:59:05;10.93;;;2.70;;
69953;SDS011;57276;51.364;12.376;2023-02-01T02:05:07;7.60;;;2.10;;
69953;SDS011;57276;51.364;12.376;2023-02-01T02:11:10;12.63;;;2.37;;
69953;SDS011;57276;51.364;12.376;2023-02-01T02:23:34;8.50;;;2.23;;
69953;SDS011;57276;51.364;12.376;2023-02-01T02:29:47;13.77;;;2.42;;
69953;SDS011;57276;51.364;12.376;2023-02-01T02:35:59;8.60;;;1.90;;
69953;SDS011;57276;51.364;12.376;2023-02-01T02:48:36;9.77;;;2.10;;
69953;SDS011;57276;51.364;12.376;2023-02-01T02:54:45;9.40;;;2.33;;
69953;SDS011;57276;51.364;12.376;2023-02-01T03:00:48;14.20;;;2.47;;
69953;SDS011;57276;51.364;12.376;2023-02-01T03:07:11;9.43;;;2.10;;
69953;SDS011;57276;51.364;12.376;2023-02-01T03:19:17;9.40;;;2.08;;
69953;SDS011;57276;51.364;12.376;2023-02-01T03:25:24;9.00;;;1.90;;
69953;SDS011;57276;51.364;12.376;2023-02-01T03:31:26;8.07;;;2.17;;
69953;SDS011;57276;51.364;12.376;2023-02-01T03:37:29;7.85;;;2.17;;
69953;SDS011;57276;51.364;12.376;2023-02-01T03:43:33;7.53;;;2.10;;
69953;SDS011;57276;51.364;12.376;2023-02-01T03:49:38;11.00;;;2.90;;
69953;SDS011;57276;51.364;12.376;2023-02-01T03:55:40;9.60;;;2.40;;
69953;SDS011;57276;51.364;12.376;2023-02-01T04:01:43;12.90;;;2.63;;
69953;SDS011;57276;51.364;12.376;2023-02-01T04:07:44;12.20;;;2.15;;
69953;SDS011;57276;51.364;12.376;2023-02-01T04:13:46;8.10;;;2.40;;
69953;SDS011;57276;51.364;12.376;2023-02-01T04:19:48;8.43;;;2.22;;
69953;SDS011;57276;51.364;12.376;2023-02-01T04:25:49;8.40;;;2.10;;
69953;SDS011;57276;51.364;12.376;2023-02-01T04:31:53;11.73;;;2.35;;
69953;SDS011;57276;51.364;12.376;2023-02-01T04:37:55;8.77;;;2.08;;
69953;SDS011;57276;51.364;12.376;2023-02-01T04:43:56;8.77;;;2.33;;
69953;SDS011;57276;51.364;12.376;2023-02-01T04:49:58;12.70;;;2.42;;
69953;SDS011;57276;51.364;12.376;2023-02-01T04:55:59;10.40;;;2.13;;
69953;SDS011;57276;51.364;12.376;2023-02-01T05:02:01;13.30;;;2.70;;
69953;SDS011;57276;51.364;12.376;2023-02-01T05:08:02;10.27;;;2.30;;
69953;SDS011;57276;51.364;12.376;2023-02-01T05:14:04;8.47;;;2.20;;
69953;SDS011;57276;51.364;12.376;2023-02-01T05:20:06;10.13;;;2.42;;
69953;SDS011;57276;51.364;12.376;2023-02-01T05:26:07;13.67;;;2.53;;
69953;SDS011;57276;51.364;12.376;2023-02-01T05:32:09;9.30;;;2.35;;
69953;SDS011;57276;51.364;12.376;2023-02-01T05:38:22;11.88;;;2.40;;
69953;SDS011;57276;51.364;12.376;2023-02-01T05:44:24;9.97;;;2.30;;
69953;SDS011;57276;51.364;12.376;2023-02-01T05:50:25;9.90;;;2.25;;
69953;SDS011;57276;51.364;12.376;2023-02-01T05:56:31;9.07;;;2.30;;
69953;SDS011;57276;51.364;12.376;2023-02-01T06:02:32;11.07;;;2.95;;
69953;SDS011;57276;51.364;12.376;2023-02-01T06:08:34;8.43;;;2.45;;
69953;SDS011;57276;51.364;12.376;2023-02-01T06:14:35;8.30;;;2.77;;
69953;SDS011;57276;51.364;12.376;2023-02-01T06:20:38;8.52;;;2.25;;
69953;SDS011;57276;51.364;12.376;2023-02-01T06:26:39;6.10;;;1.90;;
69953;SDS011;57276;51.364;12.376;2023-02-01T06:32:41;10.32;;;2.80;;
69953;SDS011;57276;51.364;12.376;2023-02-01T06:38:43;8.90;;;2.40;;
69953;SDS011;57276;51.364;12.376;2023-02-01T06:44:44;11.23;;;2.87;;
69953;SDS011;57276;51.364;12.376;2023-02-01T06:50:46;11.88;;;2.60;;
69953;SDS011;57276;51.364;12.376;2023-02-01T06:56:47;9.02;;;2.63;;
69953;SDS011;57276;51.364;12.376;2023-02-01T07:02:49;11.73;;;2.67;;
69953;SDS011;57276;51.364;12.376;2023-02-01T07:08:50;10.93;;;3.20;;
69953;SDS011;57276;51.364;12.376;2023-02-01T07:14:52;10.70;;;3.20;;
69953;SDS011;57276;51.364;12.376;2023-02-01T07:20:53;17.10;;;2.85;;
69953;SDS011;57276;51.364;12.376;2023-02-01T07:26:55;8.25;;;2.33;;
69953;SDS011;57276;51.364;12.376;2023-02-01T07:32:57;8.97;;;2.40;;
69953;SDS011;57276;51.364;12.376;2023-02-01T07:39:03;9.20;;;2.38;;
69953;SDS011;57276;51.364;12.376;2023-02-01T07:45:04;8.50;;;2.40;;
69953;SDS011;57276;51.364;12.376;2023-02-01T07:51:21;13.88;;;3.03;;
69953;SDS011;57276;51.364;12.376;2023-02-01T07:57:23;9.27;;;2.50;;
69953;SDS011;57276;51.364;12.376;2023-02-01T08:03:24;9.47;;;2.50;;
69953;SDS011;57276;51.364;12.376;2023-02-01T08:09:26;12.25;;;2.65;;
69953;SDS011;57276;51.364;12.376;2023-02-01T08:15:28;7.37;;;2.20;;
69953;SDS011;57276;51.364;12.376;2023-02-01T08:21:29;13.02;;;2.67;;
69953;SDS011;57276;51.364;12.376;2023-02-01T08:27:38;8.98;;;2.40;;
69953;SDS011;57276;51.364;12.376;2023-02-01T08:33:39;8.93;;;2.50;;
69953;SDS011;57276;51.364;12.376;2023-02-01T08:39:41;8.88;;;2.35;;
69953;SDS011;57276;51.364;12.376;2023-02-01T08:45:47;8.60;;;2.50;;
69953;SDS011;57276;51.364;12.376;2023-02-01T08:51:50;10.85;;;2.90;;
69953;SDS011;57276;51.364;12.376;2023-02-01T08:57:51;5.97;;;2.33;;
69953;SDS011;57276;51.364;12.376;2023-02-01T09:03:53;7.27;;;2.43;;
69953;SDS011;57276;51.364;12.376;2023-02-01T09:09:54;8.05;;;2.83;;
69953;SDS011;57276;51.364;12.376;2023-02-01T09:15:57;9.07;;;3.20;;
69953;SDS011;57276;51.364;12.376;2023-02-01T09:22:01;13.23;;;3.05;;
69953;SDS011;57276;51.364;12.376;2023-02-01T09:28:02;12.88;;;3.00;;
69953;SDS011;57276;51.364;12.376;2023-02-01T09:34:07;14.53;;;3.73;;
69953;SDS011;57276;51.364;12.376;2023-02-01T09:40:12;9.02;;;3.15;;
69953;SDS011;57276;51.364;12.376;2023-02-01T09:46:18;13.17;;;3.00;;
69953;SDS011;57276;51.364;12.376;2023-02-01T09:52:23;11.60;;;2.85;;
69953;SDS011;57276;51.364;12.376;2023-02-01T09:58:30;9.02;;;2.90;;
69953;SDS011;57276;51.364;12.376;2023-02-01T10:04:34;7.03;;;2.93;;
69953;SDS011;57276;51.364;12.376;2023-02-01T10:10:40;14.25;;;3.17;;
69953;SDS011;57276;51.364;12.376;2023-02-01T10:16:47;12.50;;;3.50;;
69953;SDS011;57276;51.364;12.376;2023-02-01T10:23:02;11.82;;;3.33;;
69953;SDS011;57276;51.364;12.376;2023-02-01T10:29:29;11.80;;;3.13;;
69953;SDS011;57276;51.364;12.376;2023-02-01T10:35:34;12.10;;;3.43;;
69953;SDS011;57276;51.364;12.376;2023-02-01T10:41:38;13.00;;;2.72;;
69953;SDS011;57276;51.364;12.376;2023-02-01T10:47:41;8.40;;;2.37;;
69953;SDS011;57276;51.364;12.376;2023-02-01T10:53:48;6.53;;;1.88;;
69953;SDS011;57276;51.364;12.376;2023-02-01T10:59:51;4.90;;;1.80;;
69953;SDS011;57276;51.364;12.376;2023-02-01T11:05:53;7.93;;;2.00;;
69953;SDS011;57276;51.364;12.376;2023-02-01T11:11:57;8.70;;;2.40;;
69953;SDS011;57276;51.364;12.376;2023-02-01T11:18:12;6.50;;;2.07;;
69953;SDS011;57276;51.364;12.376;2023-02-01T11:24:34;9.65;;;1.83;;
69953;SDS011;57276;51.364;12.376;2023-02-01T11:30:42;24.67;;;5.40;;
69953;SDS011;57276;51.364;12.376;2023-02-01T11:36:45;14.17;;;3.57;;
69953;SDS011;57276;51.364;12.376;2023-02-01T11:42:58;7.65;;;2.28;;
69953;SDS011;57276;51.364;12.376;2023-02-01T12:07:44;13.10;;;2.83;;
69953;SDS011;57276;51.364;12.376;2023-02-01T12:13:53;6.05;;;2.00;;
69953;SDS011;57276;51.364;12.376;2023-02-01T12:32:51;9.75;;;2.50;;
69953;SDS011;57276;51.364;12.376;2023-02-01T12:38:59;8.27;;;2.03;;
69953;SDS011;57276;51.364;12.376;2023-02-01T12:45:25;8.65;;;2.22;;
69953;SDS011;57276;51.364;12.376;2023-02-01T12:51:35;7.47;;;1.90;;
69953;SDS011;57276;51.364;12.376;2023-02-01T12:57:37;9.43;;;2.00;;
69953;SDS011;57276;51.364;12.376;2023-02-01T13:03:53;10.45;;;2.22;;
69953;SDS011;57276;51.364;12.376;2023-02-01T13:10:17;6.23;;;1.30;;
69953;SDS011;57276;51.364;12.376;2023-02-01T13:16:34;8.25;;;1.83;;
69953;SDS011;57276;51.364;12.376;2023-02-01T13:22:43;6.23;;;1.70;;
69953;SDS011;57276;51.364;12.376;2023-02-01T13:28:48;5.75;;;1.55;;
69953;SDS011;57276;51.364;12.376;2023-02-01T13:47:30;8.02;;;1.95;;
69953;SDS011;57276;51.364;12.376;2023-02-01T13:53:33;9.40;;;1.80;;
69953;SDS011;57276;51.364;12.376;2023-02-01T14:11:55;8.63;;;2.20;;
69953;SDS011;57276;51.364;12.376;2023-02-01T14:17:59;9.48;;;2.20;;
69953;SDS011;57276;51.364;12.376;2023-02-01T14:30:14;7.68;;;2.47;;
69953;SDS011;57276;51.364;12.376;2023-02-01T14:36:16;6.85;;;2.38;;
69953;SDS011;57276;51.364;12.376;2023-02-01T14:42:28;11.63;;;2.10;;
69953;SDS011;57276;51.364;12.376;2023-02-01T14:54:33;10.60;;;2.27;;
69953;SDS011;57276;51.364;12.376;2023-02-01T15:00:35;7.95;;;1.85;;
69953;SDS011;57276;51.364;12.376;2023-02-01T15:06:40;10.80;;;2.67;;
69953;SDS011;57276;51.364;12.376;2023-02-01T15:12:42;5.87;;;2.10;;
69953;SDS011;57276;51.364;12.376;2023-02-01T15:18:45;8.80;;;2.30;;
69953;SDS011;57276;51.364;12.376;2023-02-01T15:24:54;8.53;;;2.27;;
69953;SDS011;57276;51.364;12.376;2023-02-01T15:30:57;8.02;;;2.53;;
69953;SDS011;57276;51.364;12.376;2023-02-01T15:37:03;8.48;;;2.60;;
69953;SDS011;57276;51.364;12.376;2023-02-01T15:43:11;9.40;;;2.73;;
69953;SDS011;57276;51.364;12.376;2023-02-01T15:49:23;10.68;;;2.50;;
69953;SDS011;57276;51.364;12.376;2023-02-01T15:55:38;7.33;;;2.20;;
69953;SDS011;57276;51.364;12.376;2023-02-01T16:01:43;8.50;;;2.03;;
69953;SDS011;57276;51.364;12.376;2023-02-01T16:07:53;3.30;;;1.00;;
69953;SDS011;57276;51.364;12.376;2023-02-01T16:14:00;4.50;;;0.43;;
69953;SDS011;57276;51.364;12.376;2023-02-01T16:20:02;3.00;;;0.60;;
69953;SDS011;57276;51.364;12.376;2023-02-01T16:26:04;1.27;;;0.30;;
69953;SDS011;57276;51.364;12.376;2023-02-01T16:32:05;1.77;;;0.52;;
69953;SDS011;57276;51.364;12.376;2023-02-01T16:38:09;1.37;;;0.20;;
69953;SDS011;57276;51.364;12.376;2023-02-01T16:44:14;1.80;;;0.30;;
69953;SDS011;57276;51.364;12.376;2023-02-01T16:50:16;1.27;;;0.22;;
69953;SDS011;57276;51.364;12.376;2023-02-01T16:56:33;2.83;;;0.30;;
69953;SDS011;57276;51.364;12.376;2023-02-01T17:02:35;1.55;;;0.35;;
69953;SDS011;57276;51.364;12.376;2023-02-01T17:08:37;1.13;;;0.30;;
69953;SDS011;57276;51.364;12.376;2023-02-01T17:14:40;2.58;;;0.50;;
69953;SDS011;57276;51.364;12.376;2023-02-01T17:20:43;3.80;;;0.60;;
69953;SDS011;57276;51.364;12.376;2023-02-01T17:26:45;4.93;;;0.83;;
69953;SDS011;57276;51.364;12.376;2023-02-01T17:32:47;3.33;;;0.80;;
69953;SDS011;57276;51.364;12.376;2023-02-01T17:38:48;2.43;;;0.70;;
69953;SDS011;57276;51.364;12.376;2023-02-01T17:45:24;5.75;;;0.80;;
69953;SDS011;57276;51.364;12.376;2023-02-01T17:51:27;4.18;;;0.70;;
69953;SDS011;57276;51.364;12.376;2023-02-01T17:57:29;2.40;;;0.50;;
69953;SDS011;57276;51.364;12.376;2023-02-01T18:03:31;3.38;;;0.90;;
69953;SDS011;57276;51.364;12.376;2023-02-01T18:09:36;3.60;;;0.60;;
69953;SDS011;57276;51.364;12.376;2023-02-01T18:15:37;2.53;;;0.77;;
69953;SDS011;57276;51.364;12.376;2023-02-01T18:21:40;3.83;;;1.00;;
69953;SDS011;57276;51.364;12.376;2023-02-01T18:27:43;3.30;;;0.93;;
69953;SDS011;57276;51.364;12.376;2023-02-01T18:33:44;4.78;;;1.00;;
69953;SDS011;57276;51.364;12.376;2023-02-01T18:39:46;4.43;;;1.23;;
69953;SDS011;57276;51.364;12.376;2023-02-01T18:45:47;3.97;;;1.25;;
69953;SDS011;57276;51.364;12.376;2023-02-01T18:51:49;4.45;;;1.63;;
69953;SDS011;57276;51.364;12.376;2023-02-01T18:57:52;4.10;;;1.10;;
69953;SDS011;57276;51.364;12.376;2023-02-01T19:03:55;4.45;;;0.98;;
69953;SDS011;57276;51.364;12.376;2023-02-01T19:10:16;2.83;;;0.93;;
69953;SDS011;57276;51.364;12.376;2023-02-01T19:16:18;3.30;;;0.90;;
69953;SDS011;57276;51.364;12.376;2023-02-01T19:22:19;3.80;;;0.90;;
69953;SDS011;57276;51.364;12.376;2023-02-01T19:28:21;4.23;;;0.97;;
69953;SDS011;57276;51.364;12.376;2023-02-01T19:34:22;5.80;;;1.23;;
69953;SDS011;57276;51.364;12.376;2023-02-01T19:40:24;3.03;;;1.00;;
69953;SDS011;57276;51.364;12.376;2023-02-01T19:46:26;3.90;;;0.80;;
69953;SDS011;57276;51.364;12.376;2023-02-01T19:52:28;4.50;;;1.10;;
69953;SDS011;57276;51.364;12.376;2023-02-01T19:58:29;4.23;;;0.83;;
69953;SDS011;57276;51.364;12.376;2023-02-01T20:04:31;2.20;;;0.55;;
69953;SDS011;57276;51.364;12.376;2023-02-01T20:10:33;5.07;;;0.60;;
69953;SDS011;57276;51.364;12.376;2023-02-01T20:16:34;3.83;;;0.88;;
69953;SDS011;57276;51.364;12.376;2023-02-01T20:22:36;4.18;;;1.30;;
69953;SDS011;57276;51.364;12.376;2023-02-01T20:28:37;3.83;;;0.87;;
69953;SDS011;57276;51.364;12.376;2023-02-01T20:34:39;6.15;;;1.45;;
69953;SDS011;57276;51.364;12.376;2023-02-01T20:40:41;6.00;;;1.03;;
69953;SDS011;57276;51.364;12.376;2023-02-01T20:46:42;7.22;;;1.38;;
69953;SDS011;57276;51.364;12.376;2023-02-01T20:52:44;6.80;;;1.45;;
69953;SDS011;57276;51.364;12.376;2023-02-01T20:58:45;6.47;;;1.10;;
69953;SDS011;57276;51.364;12.376;2023-02-01T21:04:47;3.60;;;1.15;;
69953;SDS011;57276;51.364;12.376;2023-02-01T21:11:01;5.43;;;1.23;;
69953;SDS011;57276;51.364;12.376;2023-02-01T21:17:03;4.85;;;1.55;;
69953;SDS011;57276;51.364;12.376;2023-02-01T21:23:05;4.32;;;1.20;;
69953;SDS011;57276;51.364;12.376;2023-02-01T21:29:08;6.83;;;1.40;;
69953;SDS011;57276;51.364;12.376;2023-02-01T21:35:10;6.75;;;1.15;;
69953;SDS011;57276;51.364;12.376;2023-02-01T21:41:11;10.10;;;1.77;;
69953;SDS011;57276;51.364;12.376;2023-02-01T21:47:32;7.35;;;1.60;;
69953;SDS011;57276;51.364;12.376;2023-02-01T21:53:34;4.88;;;1.20;;
69953;SDS011;57276;51.364;12.376;2023-02-01T21:59:35;7.50;;;0.93;;
69953;SDS011;57276;51.364;12.376;2023-02-01T22:05:37;4.97;;;1.15;;
69953;SDS011;57276;51.364;12.376;2023-02-01T22:11:38;3.90;;;0.90;;
69953;SDS011;57276;51.364;12.376;2023-02-01T22:17:40;4.35;;;1.10;;
69953;SDS011;57276;51.364;12.376;2023-02-01T22:23:41;6.22;;;0.93;;
69953;SDS011;57276;51.364;12.376;2023-02-01T22:29:43;7.43;;;1.43;;
69953;SDS011;57276;51.364;12.376;2023-02-01T22:35:48;10.10;;;1.35;;
69953;SDS011;57276;51.364;12.376;2023-02-01T22:41:49;4.93;;;1.00;;
69953;SDS011;57276;51.364;12.376;2023-02-01T22:47:51;3.72;;;1.00;;
69953;SDS011;57276;51.364;12.376;2023-02-01T22:53:53;3.50;;;0.90;;
69953;SDS011;57276;51.364;12.376;2023-02-01T22:59:57;8.30;;;1.40;;
69953;SDS011;57276;51.364;12.376;2023-02-01T23:05:59;10.68;;;1.67;;
69953;SDS011;57276;51.364;12.376;2023-02-01T23:12:01;9.67;;;2.13;;
69953;SDS011;57276;51.364;12.376;2023-02-01T23:18:02;7.95;;;1.45;;
69953;SDS011;57276;51.364;12.376;2023-02-01T23:24:04;8.13;;;1.42;;
69953;SDS011;57276;51.364;12.376;2023-02-01T23:30:08;6.90;;;1.63;;
69953;SDS011;57276;51.364;12.376;2023-02-01T23:36:10;10.13;;;1.83;;
69953;SDS011;57276;51.364;12.376;2023-02-01T23:42:12;7.10;;;1.60;;
69953;SDS011;57276;51.364;12.376;2023-02-01T23:48:14;9.93;;;1.30;;
69953;SDS011;57276;51.364;12.376;2023-02-01T23:54:15;9.25;;;1.55;;
